Time;durP1;ratioP1;P1;durP2;ratioP2;P2;SDS_P1;SDS_P2;PMS_P1;PMS_P2;Temp;Humidity;BMP_temperature;BMP_pressure;BME280_temperature;BME280_humidity;BME280_pressure;Samples;Min_cycle;Max_cycle;Signal;HPM_P1;HPM_P2
2022/11/16 00:01:54;;;;;;;12.95;9.10;;;;;;;;;;5126082;27;20473;-74
2022/11/16 00:04:20;;;;;;;12.02;9.20;;;;;;;;;;5094430;28;20416;-75
2022/11/16 00:06:48;;;;;;;12.60;9.87;;;;;;;;;;5095519;28;20488;-75
2022/11/16 00:09:25;;;;;;;12.88;10.00;;;;;;;;;;5111570;28;20767;-74
2022/11/16 00:11:53;;;;;;;11.68;9.93;;;;;;;;;;5110195;27;20772;-74
2022/11/16 00:14:20;;;;;;;13.18;9.80;;;;;;;;;;5112340;28;20596;-74
2022/11/16 00:16:46;;;;;;;12.70;10.40;;;;;;;;;;5111770;28;20424;-74
2022/11/16 00:19:12;;;;;;;13.10;11.40;;;;;;;;;;5110767;28;20412;-74
2022/11/16 00:21:39;;;;;;;15.30;11.20;;;;;;;;;;5109896;27;20424;-74
2022/11/16 00:24:05;;;;;;;14.85;12.38;;;;;;;;;;5112892;28;20435;-73
2022/11/16 00:26:31;;;;;;;15.10;12.10;;;;;;;;;;5128561;27;20435;-74
2022/11/16 00:28:58;;;;;;;15.90;12.50;;;;;;;;;;5094591;28;21208;-74
2022/11/16 00:31:24;;;;;;;15.02;12.10;;;;;;;;;;5093429;28;20420;-74
2022/11/16 00:33:51;;;;;;;17.10;13.20;;;;;;;;;;5094271;27;20499;-74
2022/11/16 00:36:17;;;;;;;16.77;13.53;;;;;;;;;;5112502;28;20408;-74
2022/11/16 00:38:43;;;;;;;18.15;13.25;;;;;;;;;;5112674;28;20396;-74
2022/11/16 00:41:09;;;;;;;17.27;13.57;;;;;;;;;;5121215;27;20423;-74
2022/11/16 00:43:35;;;;;;;15.97;13.30;;;;;;;;;;5104847;27;20526;-74
2022/11/16 00:46:02;;;;;;;16.75;14.55;;;;;;;;;;5110504;28;20412;-75
2022/11/16 00:48:28;;;;;;;16.67;14.18;;;;;;;;;;5111609;27;20452;-74
2022/11/16 00:50:54;;;;;;;18.60;13.68;;;;;;;;;;5113726;28;20407;-75
2022/11/16 00:53:21;;;;;;;18.33;15.00;;;;;;;;;;5112512;28;20408;-75
2022/11/16 00:55:47;;;;;;;18.25;14.40;;;;;;;;;;5110436;28;20915;-73
2022/11/16 00:58:14;;;;;;;18.15;15.18;;;;;;;;;;5112017;28;20420;-74
2022/11/16 01:00:40;;;;;;;19.25;15.45;;;;;;;;;;5111771;28;20416;-75
2022/11/16 01:03:06;;;;;;;18.13;14.90;;;;;;;;;;5093099;28;20511;-75
2022/11/16 01:05:33;;;;;;;18.35;15.82;;;;;;;;;;5114764;27;20423;-72
2022/11/16 01:07:59;;;;;;;20.05;15.75;;;;;;;;;;5112104;28;20423;-73
2022/11/16 01:10:26;;;;;;;20.75;15.32;;;;;;;;;;5112752;28;20420;-74
2022/11/16 01:12:52;;;;;;;19.33;15.32;;;;;;;;;;5110307;28;20416;-74
2022/11/16 01:15:19;;;;;;;21.20;16.00;;;;;;;;;;5112335;28;20718;-74
2022/11/16 01:17:45;;;;;;;21.67;16.15;;;;;;;;;;5127617;27;20545;-74
2022/11/16 01:20:14;;;;;;;19.42;16.30;;;;;;;;;;5108873;28;20915;-74
2022/11/16 01:22:41;;;;;;;19.98;16.67;;;;;;;;;;5112118;27;20416;-74
2022/11/16 01:25:07;;;;;;;20.90;16.70;;;;;;;;;;5112764;28;20876;-73
2022/11/16 01:27:33;;;;;;;21.90;16.48;;;;;;;;;;5111002;28;20954;-74
2022/11/16 01:30:00;;;;;;;21.10;16.58;;;;;;;;;;5108056;28;20517;-74
2022/11/16 01:32:26;;;;;;;23.35;17.45;;;;;;;;;;5112076;28;20396;-74
2022/11/16 01:34:52;;;;;;;21.77;16.48;;;;;;;;;;5127113;27;20504;-73
2022/11/16 01:37:18;;;;;;;22.92;17.20;;;;;;;;;;5122169;27;20428;-74
2022/11/16 01:39:44;;;;;;;19.20;15.25;;;;;;;;;;5110785;27;20400;-73
2022/11/16 01:42:16;;;;;;;21.63;16.50;;;;;;;;;;5111533;28;20775;-74
2022/11/16 01:44:42;;;;;;;19.77;16.92;;;;;;;;;;5110026;27;20419;-80
2022/11/16 01:47:11;;;;;;;20.40;16.42;;;10.90;99.90;;;;;;5110474;28;20408;-81
2022/11/16 01:49:38;;;;;;;21.80;17.25;;;;;;;;;;5145247;27;20772;-81
2022/11/16 01:52:06;;;;;;;20.83;16.00;;;;;;;;;;5109325;28;20419;-81
2022/11/16 01:54:34;;;;;;;21.00;16.52;;;;;;;;;;5110855;28;20416;-80
2022/11/16 01:57:02;;;;;;;22.15;16.20;;;;;;;;;;5093181;28;20412;-80
2022/11/16 01:59:28;;;;;;;19.17;15.45;;;;;;;;;;5127722;27;20408;-80
2022/11/16 02:01:55;;;;;;;21.75;15.98;;;;;;;;;;5108093;28;20992;-80
2022/11/16 02:04:22;;;;;;;19.92;16.42;;;;;;;;;;5109220;28;20495;-80
2022/11/16 02:07:06;;;;;;;19.98;15.60;;;;;;;;;;5094033;28;20392;-80
2022/11/16 02:09:54;;;;;;;22.07;16.63;;;;;;;;;;5110065;28;20428;-81
2022/11/16 02:12:23;;;;;;;22.20;16.17;;;;;;;;;;5104633;28;20420;-80
2022/11/16 02:15:01;;;;;;;22.00;16.30;;;;;;;;;;5108300;28;20420;-80
2022/11/16 02:18:00;;;;;;;23.00;16.33;;;10.80;99.90;;;;;;5094320;28;20469;-80
2022/11/16 02:20:29;;;;;;;25.60;17.15;;;;;;;;;;5091642;28;20416;-80
2022/11/16 02:22:58;;;;;;;21.03;16.23;;;;;;;;;;5109053;28;20422;-80
2022/11/16 02:25:31;;;;;;;22.20;16.38;;;;;;;;;;5126356;27;20954;-80
2022/11/16 02:28:26;;;;;;;24.33;16.33;;;11.10;99.90;;;;;;5109729;28;20412;-80
2022/11/16 02:30:57;;;;;;;21.85;16.55;;;11.00;99.90;;;;;;5094698;28;20477;-80
2022/11/16 02:33:27;;;;;;;22.17;16.25;;;;;;;;;;5114050;28;20452;-80
2022/11/16 02:35:56;;;;;;;21.95;16.80;;;;;;;;;;5114981;28;20471;-80
2022/11/16 02:38:27;;;;;;;19.52;16.08;;;;;;;;;;5128163;27;20420;-80
2022/11/16 02:40:56;;;;;;;27.27;16.42;;;;;;;;;;5110624;27;20435;-81
2022/11/16 02:43:27;;;;;;;21.10;15.45;;;;;;;;;;5130247;27;20416;-81
2022/11/16 02:45:57;;;;;;;22.10;15.70;;;11.00;99.90;;;;;;5113585;28;20431;-81
2022/11/16 02:48:32;;;;;;;23.98;16.35;;;11.00;99.90;;;;;;5097073;28;20407;-81
2022/11/16 02:50:58;;;;;;;21.58;15.88;;;;;;;;;;5113037;28;20426;-79
2022/11/16 02:53:25;;;;;;;21.02;16.02;;;;;;;;;;5096888;28;20487;-80
2022/11/16 02:55:51;;;;;;;21.60;16.77;;;;;;;;;;5114987;28;20404;-79
2022/11/16 02:58:21;;;;;;;18.73;15.40;;;11.00;99.90;;;;;;5120750;28;20418;-80
2022/11/16 03:00:51;;;;;;;21.30;15.50;;;;;;;;;;5102069;28;20444;-80
2022/11/16 03:03:20;;;;;;;22.60;15.88;;;;;;;;;;5138446;27;20431;-80
2022/11/16 03:05:49;;;;;;;19.60;14.98;;;;;;;;;;5118278;27;20765;-81
2022/11/16 03:08:18;;;;;;;22.75;15.48;;;;;;;;;;5113882;28;20564;-80
2022/11/16 03:13:39;;;;;;;21.50;15.50;;;10.60;99.90;;;;;;5150743;27;20434;-80
2022/11/16 03:16:12;;;;;;;18.70;14.82;;;11.00;99.90;;;;;;5124846;28;20396;-80
2022/11/16 03:18:39;;;;;;;20.45;14.82;;;11.00;99.90;;;;;;5131199;27;20404;-80
2022/11/16 03:21:10;;;;;;;19.73;14.55;;;;;;;;;;5146086;27;20900;-82
2022/11/16 03:23:36;;;;;;;20.45;15.15;;;;;;;;;;5077442;28;20417;-81
2022/11/16 03:26:05;;;;;;;21.10;14.67;;;;;;;;;;5084007;28;20412;-81
2022/11/16 03:28:39;;;;;;;19.75;14.95;;;;;;;;;;5095991;28;20418;-81
2022/11/16 03:31:10;;;;;;;21.38;14.75;;;;;;;;;;5129019;27;20409;-81
2022/11/16 03:33:42;;;;;;;20.98;14.95;;;10.90;99.90;;;;;;5080814;28;20880;-81
2022/11/16 03:36:17;;;;;;;18.63;14.75;;;;;;;;;;5104053;28;20416;-81
2022/11/16 03:38:45;;;;;;;18.42;14.77;;;;;;;;;;5114364;28;20827;-80
2022/11/16 03:41:12;;;;;;;23.60;15.43;;;;;;;;;;5095371;28;20492;-81
2022/11/16 03:43:38;;;;;;;17.08;14.18;;;;;;;;;;5110225;28;20443;-79
2022/11/16 03:46:05;;;;;;;19.50;15.37;;;;;;;;;;5112889;28;20492;-81
2022/11/16 03:48:38;;;;;;;20.83;14.75;;;11.00;99.90;;;;;;5095725;28;20495;-80
2022/11/16 03:51:05;;;;;;;21.90;15.32;;;;;;;;;;5113290;28;20893;-81
2022/11/16 03:53:31;;;;;;;24.40;15.30;;;;;;;;;;5110913;28;20507;-81
2022/11/16 03:55:57;;;;;;;21.95;15.88;;;;;;;;;;5095409;28;20420;-80
2022/11/16 03:58:23;;;;;;;21.50;14.97;;;;;;;;;;5113805;28;20408;-81
2022/11/16 04:00:49;;;;;;;20.23;15.95;;;;;;;;;;5127935;27;20511;-80
2022/11/16 04:03:15;;;;;;;21.23;15.95;;;;;;;;;;5112604;28;20947;-80
2022/11/16 04:25:22;;;;;;;23.88;16.88;;;;;;;;;;5110832;28;20412;-81
2022/11/16 04:38:47;;;;;;;25.33;18.67;;;;;;;;;;5111943;28;20833;-81
2022/11/16 04:43:58;;;;;;;36.28;21.23;;;;;;;;;;5112282;28;20413;-81
2022/11/16 04:49:09;;;;;;;25.90;18.88;;;;;;;;;;5110148;28;20931;-81
2022/11/16 04:51:35;;;;;;;26.05;19.63;;;;;;;;;;5111918;28;20396;-81
2022/11/16 04:54:01;;;;;;;26.65;20.00;;;;;;;;;;5094888;28;20426;-82
2022/11/16 04:56:27;;;;;;;27.92;19.83;;;;;;;;;;5095136;28;20481;-81
2022/11/16 04:58:53;;;;;;;28.55;20.90;;;;;;;;;;5127902;27;20436;-82
2022/11/16 05:02:06;;;;;;;26.70;20.77;;;;;;;;;;5094324;28;20420;-82
2022/11/16 05:04:05;;;;;;;29.05;22.02;;;;;;;;;;5103051;27;20432;-82
2022/11/16 05:06:31;;;;;;;32.38;22.95;;;;;;;;;;5113413;27;20455;-81
2022/11/16 05:08:57;;;;;;;72.32;26.25;;;;;;;;;;5111332;28;20988;-82
2022/11/16 05:11:23;;;;;;;32.13;23.42;;;;;;;;;;5110511;28;20428;-83
2022/11/16 05:13:49;;;;;;;30.98;24.65;;;;;;;;;;5110400;28;20473;-81
2022/11/16 05:16:15;;;;;;;29.67;25.02;;;;;;;;;;5088784;28;20441;-82
2022/11/16 05:18:42;;;;;;;34.83;25.63;;;;;;;;;;5120021;27;20909;-81
2022/11/16 05:21:09;;;;;;;33.08;25.77;;;;;;;;;;5108489;28;20398;-81
2022/11/16 05:26:19;;;;;;;37.15;27.95;;;;;;;;;;5110000;28;20473;-82
2022/11/16 05:28:45;;;;;;;36.07;27.23;;;;;;;;;;5075745;27;20458;-81
2022/11/16 05:31:12;;;;;;;35.63;27.63;;;;;;;;;;5127722;27;20427;-81
2022/11/16 05:33:38;;;;;;;37.22;28.85;;;;;;;;;;5091893;28;20431;-82
2022/11/16 05:36:04;;;;;;;35.65;27.73;;;;;;;;;;5095158;28;20400;-82
2022/11/16 05:38:30;;;;;;;37.08;27.42;;;;;;;;;;5093896;28;20741;-80
2022/11/16 05:40:56;;;;;;;37.20;28.60;;;;;;;;;;5111798;28;20467;-82
2022/11/16 05:43:22;;;;;;;38.85;28.35;;;;;;;;;;5110813;28;20499;-83
2022/11/16 05:45:48;;;;;;;38.63;28.73;;;;;;;;;;5111989;28;20446;-84
2022/11/16 05:48:14;;;;;;;38.63;28.13;;;;;;;;;;5110415;28;20408;-83
2022/11/16 05:50:40;;;;;;;41.20;27.65;;;;;;;;;;5125659;27;21039;-83
2022/11/16 05:53:06;;;;;;;39.35;26.52;;;;;;;;;;5134886;27;20412;-83
2022/11/16 05:55:34;;;;;;;42.45;26.58;;;10.90;99.90;;;;;;5094776;28;20473;-83
2022/11/16 05:58:00;;;;;;;42.35;26.65;;;;;;;;;;5110329;28;20465;-84
2022/11/16 06:00:26;;;;;;;43.57;26.40;;;;;;;;;;5125931;27;20502;-83
2022/11/16 06:02:53;;;;;;;36.63;24.75;;;;;;;;;;5090945;27;20497;-82
2022/11/16 06:05:19;;;;;;;86.90;27.27;;;;;;;;;;5108272;28;20412;-83
2022/11/16 06:07:45;;;;;;;64.93;25.73;;;;;;;;;;5093295;28;20500;-81
2022/11/16 06:10:11;;;;;;;54.53;23.13;;;;;;;;;;5110162;28;20782;-82
2022/11/16 06:12:36;;;;;;;40.38;23.42;;;10.60;99.90;;;;;;5126355;27;20420;-82
2022/11/16 06:15:03;;;;;;;60.78;25.40;;;;;;;;;;5107849;28;20412;-83
2022/11/16 06:17:29;;;;;;;41.90;23.23;;;;;;;;;;5144018;27;20415;-84
2022/11/16 06:19:55;;;;;;;57.80;22.52;;;;;;;;;;5107631;28;20412;-85
2022/11/16 06:22:21;;;;;;;32.65;21.83;;;;;;;;;;5109612;28;20420;-83
2022/11/16 06:24:47;;;;;;;30.02;20.73;;;;;;;;;;5108371;28;20400;-84
2022/11/16 06:27:13;;;;;;;28.98;20.80;;;;;;;;;;5105937;28;20420;-84
2022/11/16 06:29:39;;;;;;;29.38;20.48;;;;;;;;;;5101244;28;20494;-84
2022/11/16 06:32:05;;;;;;;29.23;21.05;;;;;;;;;;5075342;28;20424;-83
2022/11/16 06:34:31;;;;;;;30.27;21.35;;;;;;;;;;5108660;28;20420;-82
2022/11/16 06:36:57;;;;;;;31.25;21.02;;;;;;;;;;5107623;28;20504;-83
2022/11/16 06:39:23;;;;;;;31.50;20.98;;;;;;;;;;5107944;28;20443;-83
2022/11/16 06:41:49;;;;;;;30.00;21.00;;;;;;;;;;5110473;28;20459;-84
2022/11/16 06:44:15;;;;;;;31.30;21.20;;;;;;;;;;5108688;28;20937;-84
2022/11/16 06:46:41;;;;;;;30.65;21.50;;;11.00;99.90;;;;;;5092755;28;20412;-84
2022/11/16 06:49:07;;;;;;;27.80;19.13;;;;;;;;;;5090985;28;20417;-83
2022/11/16 06:51:33;;;;;;;27.48;19.52;;;;;;;;;;5126137;28;20879;-83
2022/11/16 06:53:59;;;;;;;24.80;18.57;;;;;;;;;;5109436;28;20420;-82
2022/11/16 06:56:25;;;;;;;32.55;24.40;;;;;;;;;;5108626;28;20425;-82
2022/11/16 06:58:51;;;;;;;35.28;25.13;;;;;;;;;;5107767;28;20416;-82
2022/11/16 07:01:17;;;;;;;40.70;26.87;;;10.80;99.90;;;;;;5126776;27;20428;-82
2022/11/16 07:03:43;;;;;;;34.40;24.13;;;;;;;;;;5100054;28;20432;-82
2022/11/16 07:06:11;;;;;;;36.10;24.90;;;11.50;99.90;;;;;;5109809;28;20464;-82
2022/11/16 07:08:37;;;;;;;34.45;23.48;;;;;;;;;;5105682;28;20830;-81
2022/11/16 07:11:05;;;;;;;38.47;23.63;;;11.20;99.90;;;;;;5140377;27;20421;-82
2022/11/16 07:13:32;;;;;;;37.27;23.60;;;;;;;;;;5068382;28;20814;-82
2022/11/16 07:16:07;;;;;;;42.47;25.02;;;11.00;99.90;;;;;;5117016;28;20451;-82
2022/11/16 07:18:37;;;;;;;39.35;24.67;;;11.10;99.90;;;;;;5098054;28;20990;-82
2022/11/16 07:21:10;;;;;;;41.50;26.23;;;;;;;;;;5108120;28;20417;-82
2022/11/16 07:23:36;;;;;;;40.17;25.17;;;;;;;;;;5113393;28;20416;-82
2022/11/16 07:26:03;;;;;;;37.47;23.90;;;;;;;;;;5093644;28;20566;-81
2022/11/16 07:28:29;;;;;;;38.40;23.15;;;;;;;;;;5108299;27;20933;-80
2022/11/16 07:31:00;;;;;;;35.75;21.92;;;;;;;;;;5108922;28;20419;-80
2022/11/16 07:33:26;;;;;;;33.90;20.95;;;;;;;;;;5122076;27;20423;-81
2022/11/16 07:35:52;;;;;;;33.30;20.63;;;;;;;;;;5094119;28;20503;-81
2022/11/16 07:38:18;;;;;;;34.17;20.10;;;;;;;;;;5106948;27;20482;-81
2022/11/16 07:40:45;;;;;;;649.58;61.38;;;11.00;99.90;;;;;;5106631;28;20505;-81
2022/11/16 07:43:14;;;;;;;32.58;20.40;;;;;;;;;;5140637;27;20451;-80
2022/11/16 07:45:40;;;;;;;30.55;19.42;;;;;;;;;;5125838;27;20439;-80
2022/11/16 07:48:06;;;;;;;32.05;18.63;;;;;;;;;;5110972;27;20427;-81
2022/11/16 07:50:34;;;;;;;38.20;19.02;;;;;;;;;;5092389;28;20448;-80
2022/11/16 07:53:00;;;;;;;21.13;14.07;;;;;;;;;;5110829;27;20418;-81
2022/11/16 07:55:30;;;;;;;23.50;15.23;;;;;;;;;;5127456;27;20485;-80
2022/11/16 07:58:00;;;;;;;21.38;14.05;;;11.00;99.90;;;;;;5126382;27;20421;-79
2022/11/16 08:00:26;;;;;;;21.60;12.60;;;;;;;;;;5108642;27;20423;-80
2022/11/16 08:02:52;;;;;;;26.42;16.48;;;;;;;;;;5145228;27;20987;-81
2022/11/16 08:05:18;;;;;;;30.23;18.42;;;;;;;;;;5105648;28;20412;-81
2022/11/16 08:07:44;;;;;;;23.67;16.07;;;;;;;;;;5112029;27;20523;-80
2022/11/16 08:10:10;;;;;;;23.70;13.98;;;;;;;;;;5116710;28;20420;-80
2022/11/16 08:12:36;;;;;;;28.15;17.35;;;10.80;99.90;;;;;;5097557;28;20917;-81
2022/11/16 08:15:02;;;;;;;24.47;15.17;;;;;;;;;;5109979;27;20451;-80
2022/11/16 08:17:28;;;;;;;27.30;15.40;;;;;;;;;;5120144;28;20459;-80
2022/11/16 08:19:54;;;;;;;25.85;16.58;;;;;;;;;;5129539;27;20447;-80
2022/11/16 08:22:20;;;;;;;24.92;16.48;;;;;;;;;;5116937;28;20427;-80
2022/11/16 08:24:47;;;;;;;30.70;18.30;;;;;;;;;;5135175;27;20495;-81
2022/11/16 08:27:15;;;;;;;26.55;18.08;;;;;;;;;;5140844;27;20429;-80
2022/11/16 08:29:42;;;;;;;27.95;17.55;;;;;;;;;;5108788;28;20741;-80
2022/11/16 08:32:08;;;;;;;26.88;17.33;;;;;;;;;;5095233;28;20452;-82
2022/11/16 08:34:34;;;;;;;25.57;16.50;;;;;;;;;;5107626;28;20466;-81
2022/11/16 08:37:00;;;;;;;25.95;16.38;;;;;;;;;;5120273;27;20954;-81
2022/11/16 08:39:26;;;;;;;23.83;15.63;;;;;;;;;;5105210;27;20412;-83
2022/11/16 08:41:52;;;;;;;23.92;16.02;;;;;;;;;;5087995;28;20435;-81
2022/11/16 08:44:18;;;;;;;23.08;15.15;;;;;;;;;;5104809;27;20424;-81
2022/11/16 08:46:44;;;;;;;26.02;15.85;;;;;;;;;;5105915;28;20421;-82
2022/11/16 08:49:11;;;;;;;22.67;15.15;;;;;;;;;;5094087;28;20481;-81
2022/11/16 08:51:37;;;;;;;22.98;14.75;;;;;;;;;;5122918;27;20414;-80
2022/11/16 08:54:04;;;;;;;34.00;16.07;;;;;;;;;;5093831;28;20423;-82
2022/11/16 08:56:30;;;;;;;22.63;15.40;;;;;;;;;;5123117;27;20439;-80
2022/11/16 08:58:56;;;;;;;22.83;15.60;;;;;;;;;;5098278;28;20460;-81
2022/11/16 09:01:24;;;;;;;23.05;15.25;;;11.30;99.90;;;;;;5107891;28;20424;-82
2022/11/16 09:03:51;;;;;;;22.80;14.93;;;;;;;;;;5106938;27;20420;-82
2022/11/16 09:06:17;;;;;;;24.60;15.82;;;;;;;;;;5106688;27;20408;-80
2022/11/16 09:08:44;;;;;;;23.20;15.30;;;11.00;99.90;;;;;;5090529;28;20509;-81
2022/11/16 09:11:15;;;;;;;21.90;14.52;;;;;;;;;;5090153;28;20410;-80
2022/11/16 09:13:42;;;;;;;23.20;14.95;;;;;;;;;;5107950;28;20497;-81
2022/11/16 09:16:09;;;;;;;22.75;15.50;;;;;;;;;;5111202;27;20420;-81
2022/11/16 09:18:35;;;;;;;21.00;14.15;;;;;;;;;;5118469;27;20429;-81
2022/11/16 09:21:01;;;;;;;21.02;15.05;;;;;;;;;;5094572;28;20576;-82
2022/11/16 09:23:27;;;;;;;23.92;14.82;;;;;;;;;;5100187;28;21160;-83
2022/11/16 09:25:53;;;;;;;23.70;15.35;;;;;;;;;;5114170;27;20446;-82
2022/11/16 09:28:20;;;;;;;23.00;15.25;;;;;;;;;;5117063;27;20412;-81
2022/11/16 09:30:48;;;;;;;18.07;13.67;;;;;;;;;;5112148;28;20416;-73
2022/11/16 09:33:14;;;;;;;22.02;15.55;;;;;;;;;;5091217;28;20416;-73
2022/11/16 09:35:40;;;;;;;22.47;15.83;;;;;;;;;;5122457;27;20456;-73
2022/11/16 09:38:08;;;;;;;19.52;13.75;;;;;;;;;;5090563;28;20517;-73
2022/11/16 09:40:36;;;;;;;23.20;14.63;;;;;;;;;;5106520;27;20420;-74
2022/11/16 09:43:02;;;;;;;21.67;14.43;;;;;;;;;;5110957;28;20963;-74
2022/11/16 09:45:34;;;;;;;22.67;15.02;;;;;;;;;;5108157;28;20408;-74
2022/11/16 09:48:04;;;;;;;22.55;15.15;;;11.70;99.90;;;;;;5105042;27;20416;-74
2022/11/16 09:50:48;;;;;;;25.03;15.77;;;;;;;;;;5094365;28;20510;-74
2022/11/16 09:53:17;;;;;;;24.98;15.40;;;;;;;;;;5142055;27;20916;-74
2022/11/16 09:55:47;;;;;;;23.00;16.08;;;;;;;;;;5099410;28;20448;-73
2022/11/16 09:58:16;;;;;;;21.45;15.82;;;;;;;;;;5111421;28;20422;-74
2022/11/16 10:00:46;;;;;;;25.00;16.58;;;;;;;;;;5110263;27;20481;-74
2022/11/16 10:03:13;;;;;;;20.58;14.95;;;;;;;;;;5108989;27;21014;-74
2022/11/16 10:05:39;;;;;;;23.35;15.95;;;;;;;;;;5141513;27;20430;-73
2022/11/16 10:08:28;;;;;;;25.55;16.73;;;;;;;;;;5123572;27;20442;-73
2022/11/16 10:11:04;;;;;;;21.15;14.45;;;;;;;;;;5101360;28;20443;-74
2022/11/16 10:13:48;;;;;;;20.93;13.80;;;12.10;99.90;;;;;;5125719;27;20459;-72
2022/11/16 10:16:20;;;;;;;18.25;12.50;;;11.90;99.90;;;;;;5109786;28;20842;-73
2022/11/16 10:19:02;;;;;;;19.60;12.07;;;12.20;99.90;;;;;;5108595;28;20422;-72
2022/11/16 10:21:44;;;;;;;16.23;11.00;;;;;;;;;;5123515;27;20423;-72
2022/11/16 10:24:10;;;;;;;20.67;11.80;;;;;;;;;;5115206;27;22303;-74
2022/11/16 10:26:42;;;;;;;15.70;11.45;;;;;;;;;;5105943;28;20423;-74
2022/11/16 10:29:27;;;;;;;17.55;11.73;;;;;;;;;;5110396;28;20434;-74
2022/11/16 10:32:05;;;;;;;17.08;11.90;;;;;;;;;;5107087;28;20760;-74
2022/11/16 10:34:39;;;;;;;17.55;11.75;;;12.20;99.90;;;;;;5104629;28;20417;-82
2022/11/16 10:37:07;;;;;;;18.65;11.23;;;;;;;;;;5112468;28;20436;-82
2022/11/16 10:39:35;;;;;;;16.83;10.90;;;;;;;;;;5094097;28;20430;-82
2022/11/16 10:42:08;;;;;;;15.73;10.60;;;12.20;99.90;;;;;;5131984;27;20419;-81
2022/11/16 10:44:40;;;;;;;15.40;9.90;;;;;;;;;;5096542;28;20421;-82
2022/11/16 10:47:22;;;;;;;15.65;9.30;;;12.30;99.90;;;;;;5115389;28;20413;-81
2022/11/16 10:49:54;;;;;;;15.07;9.30;;;12.30;99.90;;;;;;5087097;28;20923;-82
2022/11/16 10:52:20;;;;;;;13.38;9.77;;;;;;;;;;5114802;27;20420;-80
2022/11/16 10:54:47;;;;;;;14.65;8.30;;;;;;;;;;5094920;28;20491;-81
2022/11/16 10:57:13;;;;;;;15.57;8.57;;;;;;;;;;5128616;27;20492;-80
2022/11/16 11:00:08;;;;;;;13.85;8.43;;;;;;;;;;5109610;28;20474;-80
2022/11/16 11:02:35;;;;;;;15.05;8.63;;;12.10;99.90;;;;;;5087658;28;20445;-81
2022/11/16 11:05:01;;;;;;;14.57;8.68;;;;;;;;;;5087258;28;20470;-81
2022/11/16 11:07:39;;;;;;;15.18;9.20;;;11.80;99.90;;;;;;5112608;27;20428;-80
2022/11/16 11:10:25;;;;;;;13.90;8.63;;;;;;;;;;5112447;27;20791;-81
2022/11/16 11:13:12;;;;;;;15.67;8.80;;;;;;;;;;5082810;28;20589;-82
2022/11/16 11:15:39;;;;;;;13.23;8.67;;;;;;;;;;5100370;27;20428;-81
2022/11/16 11:18:23;;;;;;;15.40;8.63;;;;;;;;;;5117586;27;20536;-80
2022/11/16 11:21:04;;;;;;;13.88;9.13;;;12.30;99.90;;;;;;5109622;28;20420;-81
2022/11/16 11:23:40;;;;;;;13.80;9.15;;;12.10;99.90;;;;;;5113534;27;20475;-81
2022/11/16 11:26:06;;;;;;;15.50;9.15;;;;;;;;;;5111351;28;20802;-81
2022/11/16 11:28:33;;;;;;;13.43;8.30;;;;;;;;;;5108603;28;20421;-83
2022/11/16 11:30:59;;;;;;;13.25;7.72;;;;;;;;;;5094164;28;20472;-81
2022/11/16 11:33:36;;;;;;;11.63;8.15;;;12.30;99.90;;;;;;5089196;28;20420;-83
2022/11/16 11:36:06;;;;;;;9.85;6.63;;;;;;;;;;5107131;28;20414;-82
2022/11/16 11:38:34;;;;;;;13.77;7.07;;;12.60;99.90;;;;;;5116853;27;20915;-81
2022/11/16 11:41:04;;;;;;;10.93;6.77;;;12.50;99.90;;;;;;5097375;28;20483;-83
2022/11/16 11:43:32;;;;;;;10.93;6.40;;;12.60;99.90;;;;;;5117946;27;20748;-82
2022/11/16 11:46:23;;;;;;;11.05;5.85;;;12.80;99.90;;;;;;5097063;27;20416;-82
2022/11/16 11:48:58;;;;;;;9.25;5.15;;;12.70;99.90;;;;;;5111526;27;20919;-80
2022/11/16 11:51:33;;;;;;;8.93;4.60;;;12.30;99.90;;;;;;5112583;28;20475;-82
2022/11/16 11:54:01;;;;;;;9.70;4.60;;;;;;;;;;5094474;27;20420;-81
2022/11/16 11:56:31;;;;;;;10.13;4.80;;;12.50;99.90;;;;;;5113524;27;20495;-83
2022/11/16 11:58:57;;;;;;;10.93;4.80;;;;;;;;;;5112551;28;20486;-82
2022/11/16 12:01:58;;;;;;;11.27;4.85;;;12.40;99.90;;;;;;5112709;28;21421;-80
2022/11/16 12:04:27;;;;;;;11.50;4.10;;;13.10;99.90;;;;;;5092141;27;20504;-81
2022/11/16 12:07:13;;;;;;;10.50;4.00;;;12.70;99.90;;;;;;5096539;27;20451;-80
2022/11/16 12:10:11;;;;;;;11.75;3.60;;;13.00;99.90;;;;;;5122583;27;20420;-80
2022/11/16 12:13:11;;;;;;;8.30;3.83;;;13.10;99.90;;;;;;5039046;28;20845;-73
2022/11/16 12:15:46;;;;;;;10.02;3.53;;;;;;;;;;5083200;27;20532;-80
2022/11/16 12:18:27;;;;;;;9.33;3.50;;;13.00;99.90;;;;;;5108270;27;20479;-80
2022/11/16 12:21:00;;;;;;;7.78;3.35;;;12.90;99.90;;;;;;5141580;27;20637;-81
2022/11/16 12:23:45;;;;;;;8.50;3.08;;;;;;;;;;5112179;27;20426;-81
2022/11/16 12:26:17;;;;;;;10.55;3.70;;;;;;;;;;5115086;27;20565;-81
2022/11/16 12:28:49;;;;;;;10.75;3.70;;;;;;;;;;5108862;28;20449;-73
2022/11/16 12:31:15;;;;;;;9.13;3.10;;;;;;;;;;5111307;27;20424;-73
2022/11/16 12:33:48;;;;;;;12.50;3.20;;;;;;;;;;5123535;27;20427;-75
2022/11/16 12:36:38;;;;;;;10.25;3.75;;;12.30;99.90;;;;;;5094852;28;20427;-75
2022/11/16 12:39:07;;;;;;;15.48;4.18;;;;;;;;;;5108000;28;20420;-75
2022/11/16 12:41:54;;;;;;;9.70;3.65;;;;;;;;;;5110289;28;20421;-75
2022/11/16 12:44:35;;;;;;;12.13;3.85;;;;;;;;;;5053147;28;20520;-75
2022/11/16 12:47:09;;;;;;;14.18;4.03;;;;;;;;;;5107425;28;20436;-72
2022/11/16 12:49:35;;;;;;;12.23;3.90;;;;;;;;;;5082943;28;20502;-73
2022/11/16 12:52:35;;;;;;;12.20;4.38;;;11.80;99.90;;;;;;5086890;28;20500;-73
2022/11/16 12:55:15;;;;;;;10.25;3.78;;;12.00;99.90;;;;;;5104031;28;20422;-72
2022/11/16 12:58:19;;;;;;;13.43;4.10;;;11.90;99.90;;;;;;5106865;28;20495;-74
2022/11/16 13:01:11;;;;;;;13.30;3.63;;;12.10;99.90;;;;;;5050867;28;20421;-74
2022/11/16 13:03:49;;;;;;;11.73;3.17;;;;;;;;;;5113151;27;20988;-73
2022/11/16 13:06:17;;;;;;;11.30;3.45;;;;;;;;;;5087307;28;20416;-74
2022/11/16 13:08:57;;;;;;;9.85;3.38;;;12.30;99.90;;;;;;5091799;28;20428;-74
2022/11/16 13:11:29;;;;;;;11.23;3.20;;;;;;;;;;5101440;27;20421;-73
2022/11/16 13:13:59;;;;;;;9.82;3.17;;;11.90;99.90;;;;;;5088547;27;20485;-74
2022/11/16 13:16:26;;;;;;;12.73;3.10;;;12.00;99.90;;;;;;5110482;27;20420;-73
2022/11/16 13:18:53;;;;;;;10.55;3.38;;;12.10;99.90;;;;;;5089982;28;20761;-73
2022/11/16 13:21:41;;;;;;;9.13;3.60;;;;;;;;;;5084008;28;20424;-74
2022/11/16 13:24:07;;;;;;;11.95;3.80;;;;;;;;;;5103243;28;20421;-74
2022/11/16 13:26:58;;;;;;;10.37;3.63;;;12.00;99.90;;;;;;5110005;28;20425;-74
2022/11/16 13:29:31;;;;;;;8.88;3.53;;;;;;;;;;5069007;28;20421;-74
2022/11/16 13:32:05;;;;;;;10.30;3.40;;;;;;;;;;5108668;28;20426;-74
2022/11/16 13:34:32;;;;;;;9.68;3.70;;;;;;;;;;5104884;27;20513;-73
2022/11/16 13:36:58;;;;;;;12.57;3.65;;;;;;;;;;5097591;28;20821;-74
2022/11/16 13:39:46;;;;;;;9.82;3.20;;;12.00;99.90;;;;;;5084470;28;20419;-74
2022/11/16 13:42:12;;;;;;;11.18;3.15;;;;;;;;;;5135584;27;20420;-74
2022/11/16 13:44:39;;;;;;;13.65;3.70;;;;;;;;;;5083114;28;20417;-74
2022/11/16 13:47:23;;;;;;;9.63;3.38;;;12.00;99.90;;;;;;5091431;28;20408;-74
2022/11/16 13:49:51;;;;;;;10.48;3.25;;;;;;;;;;5102781;28;20420;-73
2022/11/16 13:52:17;;;;;;;12.52;4.18;;;;;;;;;;5106408;28;20423;-73
2022/11/16 13:54:46;;;;;;;11.80;3.85;;;11.80;99.90;;;;;;5091914;28;20477;-74
2022/11/16 13:57:22;;;;;;;12.73;3.67;;;;;;;;;;5090926;28;20424;-73
2022/11/16 13:59:50;;;;;;;11.60;3.50;;;;;;;;;;5139397;27;20418;-73
2022/11/16 14:02:28;;;;;;;10.20;3.30;;;;;;;;;;5120451;27;20472;-74
2022/11/16 14:04:56;;;;;;;11.85;3.63;;;;;;;;;;5094210;28;20420;-74
2022/11/16 14:07:30;;;;;;;14.82;4.22;;;;;;;;;;5140800;27;20455;-74
2022/11/16 14:09:57;;;;;;;12.57;4.25;;;;;;;;;;5126913;27;20483;-74
2022/11/16 14:12:38;;;;;;;14.63;3.37;;;;;;;;;;5109827;28;20457;-75
2022/11/16 14:15:16;;;;;;;12.52;3.65;;;11.70;99.90;;;;;;5121706;27;20424;-74
2022/11/16 14:18:01;;;;;;;12.95;3.58;;;;;;;;;;5123975;27;20431;-74
2022/11/16 14:20:33;;;;;;;12.60;3.65;;;;;;;;;;5103188;28;20741;-74
2022/11/16 14:23:15;;;;;;;13.87;4.23;;;;;;;;;;5109294;28;20420;-74
2022/11/16 14:25:55;;;;;;;12.45;4.38;;;11.70;99.90;;;;;;5091054;28;20938;-74
2022/11/16 14:28:40;;;;;;;12.68;3.67;;;;;;;;;;5144579;27;20499;-73
2022/11/16 14:31:14;;;;;;;12.48;3.67;;;;;;;;;;5110625;28;20434;-74
2022/11/16 14:33:41;;;;;;;12.00;3.35;;;;;;;;;;5104147;28;20480;-74
2022/11/16 14:36:07;;;;;;;15.57;4.00;;;;;;;;;;5091354;28;20495;-75
2022/11/16 14:38:41;;;;;;;12.75;3.38;;;;;;;;;;5139463;27;20487;-75
2022/11/16 14:41:21;;;;;;;12.50;3.43;;;;;;;;;;5104592;28;20488;-75
2022/11/16 14:43:50;;;;;;;17.50;3.67;;;;;;;;;;5108758;28;20442;-74
2022/11/16 14:46:25;;;;;;;13.77;3.35;;;;;;;;;;5108194;28;20486;-75
2022/11/16 14:48:54;;;;;;;11.45;3.15;;;11.10;99.90;;;;;;5124401;27;20531;-74
2022/11/16 14:51:30;;;;;;;10.93;2.90;;;;;;;;;;5085790;28;20416;-75
2022/11/16 14:53:59;;;;;;;13.85;3.10;;;;;;;;;;5124922;28;20437;-75
2022/11/16 14:56:25;;;;;;;12.73;2.92;;;;;;;;;;5088335;28;20911;-74